createdAt,value
2018-06-15T00:01:53.869Z,17.53
2018-06-15T00:04:21.452Z,17.53
2018-06-15T00:06:49.420Z,17.53
2018-06-15T00:09:17.119Z,17.53
2018-06-15T00:11:44.760Z,17.54
2018-06-15T00:14:12.347Z,17.55
2018-06-15T00:16:40.268Z,17.57
2018-06-15T00:19:09.100Z,17.55
2018-06-15T00:21:36.703Z,17.54
2018-06-15T00:24:04.264Z,17.54
2018-06-15T00:26:32.152Z,17.54
2018-06-15T00:28:59.711Z,17.56
2018-06-15T00:31:27.520Z,17.58
2018-06-15T00:33:55.548Z,17.58
2018-06-15T00:36:23.148Z,17.59
2018-06-15T00:38:50.726Z,17.60
2018-06-15T00:41:18.785Z,17.61
2018-06-15T00:43:46.383Z,17.61
2018-06-15T00:46:13.959Z,17.60
2018-06-15T00:48:42.095Z,17.56
2018-06-15T00:51:10.883Z,17.54
2018-06-15T00:53:38.456Z,17.54
2018-06-15T00:56:06.608Z,17.53
2018-06-15T00:58:34.337Z,17.53
2018-06-15T01:01:02.357Z,17.55
2018-06-15T01:03:30.305Z,17.54
2018-06-15T01:05:57.868Z,17.55
2018-06-15T01:08:25.876Z,17.57
2018-06-15T01:10:53.484Z,17.57
2018-06-15T01:13:21.092Z,17.58
2018-06-15T01:15:49.543Z,17.60
2018-06-15T01:18:17.748Z,17.61
2018-06-15T01:20:45.538Z,17.60
2018-06-15T01:23:13.183Z,17.62
2018-06-15T01:25:41.215Z,17.63
2018-06-15T01:28:08.792Z,17.62
2018-06-15T01:30:36.383Z,17.63
2018-06-15T01:33:03.941Z,17.62
2018-06-15T01:35:31.851Z,17.63
2018-06-15T01:37:59.463Z,17.63
2018-06-15T01:40:28.059Z,17.64
2018-06-15T01:42:55.663Z,17.67
2018-06-15T01:45:26.683Z,17.66
2018-06-15T01:47:55.273Z,17.63
2018-06-15T01:50:22.864Z,17.63
2018-06-15T01:52:50.876Z,17.63
2018-06-15T01:55:18.459Z,17.63
2018-06-15T01:57:46.120Z,17.63
2018-06-15T02:00:14.261Z,17.62
2018-06-15T02:02:41.943Z,17.61
2018-06-15T02:05:09.513Z,17.61
2018-06-15T02:07:37.568Z,17.63
2018-06-15T02:10:05.770Z,17.64
2018-06-15T02:12:33.389Z,17.66
2018-06-15T02:15:00.957Z,17.66
2018-06-15T02:17:28.841Z,17.65
2018-06-15T02:19:56.672Z,17.66
2018-06-15T02:22:24.264Z,17.68
2018-06-15T02:24:51.872Z,17.69
2018-06-15T02:27:20.579Z,17.67
2018-06-15T02:29:48.191Z,17.65
2018-06-15T02:32:15.775Z,17.63
2018-06-15T02:34:43.476Z,17.61
2018-06-15T02:37:11.407Z,17.61
2018-06-15T02:39:39.016Z,17.55
2018-06-15T02:42:06.592Z,17.52
2018-06-15T02:44:35.047Z,17.50
2018-06-15T02:47:03.668Z,17.53
2018-06-15T02:49:31.761Z,17.54
2018-06-15T02:51:59.356Z,17.57
2018-06-15T02:54:27.748Z,17.58
2018-06-15T02:56:55.867Z,17.60
2018-06-15T02:59:24.261Z,17.63
2018-06-15T03:01:51.836Z,17.64
2018-06-15T03:04:19.423Z,17.63
2018-06-15T03:06:47.414Z,17.63
2018-06-15T03:09:15.804Z,17.65
2018-06-15T03:11:43.464Z,17.67
2018-06-15T03:14:11.683Z,17.67
2018-06-15T03:16:40.087Z,17.67
2018-06-15T03:19:07.945Z,17.67
2018-06-15T03:21:35.559Z,17.68
2018-06-15T03:24:03.512Z,17.65
2018-06-15T03:26:31.220Z,17.63
2018-06-15T03:28:58.839Z,17.63
2018-06-15T03:31:26.423Z,17.64
2018-06-15T03:33:54.370Z,17.67
2018-06-15T03:36:21.996Z,17.69
2018-06-15T03:38:49.571Z,17.70
2018-06-15T03:41:18.507Z,17.72
2018-06-15T03:43:46.123Z,17.73
2018-06-15T03:46:13.706Z,17.72
2018-06-15T03:48:41.586Z,17.73
2018-06-15T03:51:09.152Z,17.73
2018-06-15T03:53:36.700Z,17.72
2018-06-15T03:56:05.919Z,17.73
2018-06-15T03:58:33.524Z,17.75
2018-06-15T04:01:01.130Z,17.75
2018-06-15T04:03:28.700Z,17.77
2018-06-15T04:05:58.059Z,17.76
2018-06-15T04:08:26.627Z,17.76
2018-06-15T04:10:54.245Z,17.77
2018-06-15T04:13:22.300Z,17.81
2018-06-15T04:15:50.054Z,17.83
2018-06-15T04:18:17.635Z,17.84
2018-06-15T04:20:47.665Z,17.86
2018-06-15T04:23:15.622Z,17.86
2018-06-15T04:25:44.179Z,17.87
2018-06-15T04:28:11.782Z,17.87
2018-06-15T04:30:41.612Z,17.89
2018-06-15T04:33:09.292Z,17.91
2018-06-15T04:35:36.875Z,17.94
2018-06-15T04:38:04.876Z,17.97
2018-06-15T04:40:32.463Z,17.96
2018-06-15T04:43:00.069Z,17.98
2018-06-15T04:45:28.083Z,18.00
2018-06-15T04:47:55.660Z,18.05
2018-06-15T04:50:24.416Z,18.10
2018-06-15T04:52:52.475Z,18.15
